Wellington, New Zealand
Current Conditions -  °F | °C
As of 1:30 PM on Sunday 21 Dec 2014 (Local Time) from NZWN Reporting Station
Broken Clouds Broken Clouds  
Wind Chill: 68°   Ceiling: 2000
Heat Index: 68°   Visibility: 6mi
Dew Point: 61°   Wind: 16mph
Humidity: 78%   Direction: 360°N
Pressure: 29.83"   Gusts: NA
Location:  41.29°S, 174.78°E
Report Text: NZWN 210130Z AUTO 36014KT 330V030 9999 FEW015/// BKN020///BKN033/// 20/16 Q1010 NOSIG
Loading
Personal Weather Stations






























Interactive Weather Map New forecast layout! Learn more

10-Day Weather Forecast

Advertisements
Track Severe Weather on mobile